createdAt,value
2023-02-17T00:01:38.585Z,4.75
2023-02-17T00:04:08.139Z,4.99
2023-02-17T00:06:37.038Z,4.96
2023-02-17T00:09:05.349Z,5.06
2023-02-17T00:11:34.015Z,5.25
2023-02-17T00:16:55.119Z,5.25
2023-02-17T00:19:25.401Z,5.29
2023-02-17T00:21:56.025Z,5.31
2023-02-17T00:24:25.025Z,5.34
2023-02-17T00:26:53.230Z,5.30
2023-02-17T00:29:21.794Z,5.33
2023-02-17T00:31:50.653Z,5.51
2023-02-17T00:34:19.069Z,5.46
2023-02-17T00:36:49.227Z,5.53
2023-02-17T00:39:18.530Z,5.59
2023-02-17T00:41:50.518Z,5.54
2023-02-17T00:44:21.608Z,5.62
2023-02-17T00:46:52.495Z,5.66
2023-02-17T00:49:24.816Z,5.60
2023-02-17T00:51:55.379Z,5.71
2023-02-17T00:54:23.602Z,5.66
2023-02-17T00:56:51.855Z,5.62
2023-02-17T00:59:20.106Z,5.62
2023-02-17T01:01:48.358Z,5.62
2023-02-17T01:04:16.684Z,5.71
2023-02-17T01:06:48.861Z,5.80
2023-02-17T01:09:18.609Z,5.76
2023-02-17T01:11:47.237Z,5.82
2023-02-17T01:14:16.375Z,5.86
2023-02-17T01:16:49.786Z,5.92
2023-02-17T01:19:20.499Z,5.29
2023-02-17T01:21:49.875Z,6.07
2023-02-17T01:24:19.450Z,6.06
2023-02-17T01:26:47.838Z,6.12
2023-02-17T01:29:16.270Z,6.23
2023-02-17T01:31:45.570Z,6.29
2023-02-17T01:34:14.357Z,6.24
2023-02-17T01:36:42.569Z,6.15
2023-02-17T01:39:14.448Z,6.23
2023-02-17T01:41:44.687Z,6.34
2023-02-17T01:44:17.442Z,6.38
2023-02-17T01:46:47.623Z,6.29
2023-02-17T01:49:30.787Z,6.43
2023-02-17T01:52:06.485Z,6.47
2023-02-17T01:54:40.804Z,6.43
2023-02-17T01:57:13.088Z,6.37
2023-02-17T01:59:42.512Z,6.46
2023-02-17T02:02:11.220Z,4.97
2023-02-17T02:04:43.149Z,6.48
2023-02-17T02:07:17.063Z,6.41
2023-02-17T02:09:51.490Z,6.17
2023-02-17T02:12:25.032Z,6.46
2023-02-17T02:14:54.469Z,6.28
2023-02-17T02:17:34.964Z,6.22
2023-02-17T02:20:29.711Z,6.30
2023-02-17T02:23:45.076Z,6.18
2023-02-17T02:26:54.809Z,6.21
2023-02-17T02:30:23.304Z,6.07
2023-02-17T02:33:02.338Z,6.14
2023-02-17T02:35:40.698Z,6.32
2023-02-17T02:38:29.403Z,6.32
2023-02-17T02:41:05.660Z,6.50
2023-02-17T02:43:34.261Z,6.44
2023-02-17T02:46:02.560Z,6.65
2023-02-17T02:48:32.429Z,6.54
2023-02-17T02:51:24.183Z,6.62
2023-02-17T02:54:26.278Z,6.76
2023-02-17T02:57:15.213Z,6.64
2023-02-17T02:59:56.751Z,6.63
2023-02-17T03:02:32.342Z,6.73
2023-02-17T03:05:11.366Z,6.80
2023-02-17T03:07:46.246Z,6.86
2023-02-17T03:10:16.238Z,6.84
2023-02-17T03:12:45.203Z,7.01
2023-02-17T03:15:18.373Z,6.81
2023-02-17T03:17:46.544Z,6.98
2023-02-17T03:20:16.857Z,6.95
2023-02-17T03:22:48.602Z,7.02
2023-02-17T03:25:17.676Z,7.09
2023-02-17T03:27:45.830Z,7.17
2023-02-17T03:30:15.873Z,7.18
2023-02-17T03:32:44.231Z,7.08
2023-02-17T03:35:12.584Z,7.20
2023-02-17T03:37:42.497Z,7.17
2023-02-17T03:40:15.689Z,7.09
2023-02-17T03:42:43.764Z,7.26
2023-02-17T03:45:11.898Z,7.20
2023-02-17T03:47:39.983Z,7.32
2023-02-17T03:50:09.405Z,7.17
2023-02-17T03:52:38.059Z,7.29
2023-02-17T03:55:08.109Z,7.20
2023-02-17T03:57:36.719Z,7.30
2023-02-17T04:00:06.209Z,7.41
2023-02-17T04:02:44.004Z,7.34
2023-02-17T04:05:12.942Z,7.46
2023-02-17T04:07:41.134Z,7.39
2023-02-17T04:10:11.846Z,7.38
2023-02-17T04:12:40.033Z,7.39
2023-02-17T04:15:09.345Z,7.44
2023-02-17T04:17:38.677Z,7.40
2023-02-17T04:20:09.296Z,7.47
2023-02-17T04:22:37.542Z,7.48
2023-02-17T04:25:06.239Z,7.48
2023-02-17T04:27:36.201Z,7.43
2023-02-17T04:30:04.871Z,7.29
2023-02-17T04:32:33.065Z,7.59
2023-02-17T04:35:01.319Z,7.50
2023-02-17T04:37:29.497Z,7.56
2023-02-17T04:39:57.695Z,7.49
2023-02-17T04:42:26.188Z,7.53
2023-02-17T04:44:55.718Z,7.60
2023-02-17T04:47:23.972Z,7.59
2023-02-17T04:49:52.167Z,7.52
2023-02-17T04:52:20.370Z,7.58
2023-02-17T04:54:48.570Z,7.60
2023-02-17T04:57:17.129Z,7.63
2023-02-17T04:59:45.711Z,7.57
2023-02-17T05:02:15.275Z,7.65
2023-02-17T05:04:46.009Z,7.61
2023-02-17T05:07:14.662Z,7.64
2023-02-17T05:09:42.950Z,7.68
2023-02-17T05:12:11.128Z,7.62
2023-02-17T05:14:39.395Z,7.61
2023-02-17T05:17:07.599Z,7.61
2023-02-17T05:19:37.295Z,7.59
2023-02-17T05:22:06.451Z,7.57
2023-02-17T05:24:34.653Z,7.55
2023-02-17T05:27:02.846Z,7.00
2023-02-17T05:29:31.033Z,7.57
2023-02-17T05:31:59.257Z,7.73
2023-02-17T05:34:27.520Z,7.59
2023-02-17T05:36:57.093Z,7.67
2023-02-17T05:39:25.712Z,7.52
2023-02-17T05:41:56.410Z,7.51
2023-02-17T05:44:24.812Z,7.58
2023-02-17T05:46:53.484Z,7.00
2023-02-17T05:49:21.686Z,7.61
2023-02-17T05:51:49.995Z,7.62
2023-02-17T05:54:19.516Z,7.58
2023-02-17T05:56:47.887Z,7.71
2023-02-17T05:59:16.053Z,7.66
2023-02-17T06:01:44.263Z,7.85
2023-02-17T06:04:12.560Z,7.71
2023-02-17T06:06:40.748Z,7.88
2023-02-17T06:09:08.953Z,7.79
2023-02-17T06:11:38.784Z,7.81
2023-02-17T06:14:07.384Z,7.79
2023-02-17T06:16:35.560Z,7.77
2023-02-17T06:19:05.183Z,7.98
2023-02-17T06:21:35.005Z,7.88
2023-02-17T06:24:27.001Z,7.88
2023-02-17T06:26:57.466Z,7.89
2023-02-17T06:29:25.681Z,7.94
2023-02-17T06:31:53.942Z,8.02
2023-02-17T06:34:22.189Z,7.97
2023-02-17T06:36:50.492Z,7.82
2023-02-17T06:39:19.404Z,7.85
2023-02-17T06:41:47.594Z,7.83
2023-02-17T06:44:17.173Z,7.71
2023-02-17T06:46:46.871Z,7.77
2023-02-17T06:49:15.595Z,7.82
2023-02-17T06:51:43.836Z,7.84
2023-02-17T06:54:12.087Z,7.52
2023-02-17T06:56:40.461Z,7.67
2023-02-17T06:59:08.792Z,7.80
2023-02-17T07:01:38.526Z,7.80
2023-02-17T07:04:07.702Z,7.72
2023-02-17T07:06:40.070Z,7.85
2023-02-17T07:09:08.526Z,7.81
2023-02-17T07:11:36.669Z,7.90
2023-02-17T07:14:04.772Z,7.89
2023-02-17T07:16:32.922Z,7.93
2023-02-17T07:19:02.393Z,8.01
2023-02-17T07:21:30.473Z,7.87
2023-02-17T07:23:58.551Z,7.82
2023-02-17T07:26:26.866Z,7.75
2023-02-17T07:28:54.998Z,7.73
2023-02-17T07:31:23.211Z,7.81
2023-02-17T07:33:51.430Z,7.77
2023-02-17T07:36:21.154Z,7.71
2023-02-17T07:38:49.995Z,7.80
2023-02-17T07:41:20.291Z,7.79
2023-02-17T07:43:49.351Z,7.66
2023-02-17T07:46:18.609Z,7.79
2023-02-17T07:48:47.469Z,7.82
2023-02-17T07:51:20.627Z,7.82
2023-02-17T07:53:53.290Z,7.77
2023-02-17T07:56:23.015Z,7.69
2023-02-17T07:58:51.733Z,7.76
2023-02-17T08:01:23.045Z,7.85
2023-02-17T08:03:51.962Z,7.87
2023-02-17T08:06:22.757Z,7.92
2023-02-17T08:09:11.151Z,7.92
2023-02-17T08:11:57.537Z,7.95
2023-02-17T08:14:28.426Z,7.97
2023-02-17T08:16:56.981Z,8.04
2023-02-17T08:19:27.151Z,8.01
2023-02-17T08:21:59.535Z,8.06
2023-02-17T08:24:29.860Z,8.11
2023-02-17T08:26:58.075Z,8.22
2023-02-17T08:29:26.243Z,8.14
2023-02-17T08:31:55.005Z,8.12
2023-02-17T08:34:23.317Z,8.21
2023-02-17T08:36:51.487Z,8.19
2023-02-17T08:39:19.755Z,8.13
2023-02-17T08:41:49.780Z,8.15
2023-02-17T08:44:20.911Z,8.03
2023-02-17T08:46:51.164Z,8.30
2023-02-17T08:49:22.551Z,8.07
2023-02-17T08:51:51.546Z,8.22
2023-02-17T08:54:19.945Z,8.12
2023-02-17T08:56:49.528Z,8.09
2023-02-17T08:59:18.186Z,8.17
2023-02-17T09:01:46.456Z,8.09
2023-02-17T09:04:19.356Z,8.19
2023-02-17T09:06:56.040Z,8.16
2023-02-17T09:09:27.810Z,8.23
2023-02-17T09:11:58.983Z,8.30
2023-02-17T09:14:27.678Z,8.31
2023-02-17T09:16:56.760Z,8.29
2023-02-17T09:19:25.809Z,8.25
2023-02-17T09:21:54.699Z,8.30
2023-02-17T09:24:23.341Z,8.38
2023-02-17T09:26:51.592Z,8.33
2023-02-17T09:29:21.094Z,8.38
2023-02-17T09:31:49.481Z,8.27
2023-02-17T09:34:17.726Z,8.38
2023-02-17T09:36:46.230Z,8.18
2023-02-17T09:39:14.907Z,8.29
2023-02-17T09:41:47.296Z,8.26
2023-02-17T09:44:23.790Z,8.29
2023-02-17T09:47:05.517Z,8.22
2023-02-17T09:49:41.497Z,8.41
2023-02-17T09:52:15.766Z,8.45
2023-02-17T09:54:57.778Z,8.38
2023-02-17T09:57:31.518Z,8.46
2023-02-17T10:00:08.896Z,8.42
2023-02-17T10:02:48.210Z,8.54
2023-02-17T10:05:22.911Z,8.04
2023-02-17T10:07:58.149Z,8.62
2023-02-17T10:10:32.801Z,8.61
2023-02-17T10:13:03.837Z,8.78
2023-02-17T10:15:40.866Z,8.65
2023-02-17T10:18:20.251Z,8.65
2023-02-17T10:20:53.815Z,7.80
2023-02-17T10:23:25.977Z,8.75
2023-02-17T10:26:12.013Z,8.84
2023-02-17T10:28:52.371Z,8.78
2023-02-17T10:31:39.862Z,8.81
2023-02-17T10:34:21.159Z,8.84
2023-02-17T10:36:58.798Z,8.79
2023-02-17T10:39:45.200Z,8.86
2023-02-17T10:42:22.555Z,8.86
2023-02-17T10:44:52.548Z,9.47
2023-02-17T10:47:23.502Z,7.81
2023-02-17T10:49:54.777Z,9.13
2023-02-17T10:52:37.712Z,8.99
2023-02-17T10:55:22.788Z,9.04
2023-02-17T10:58:00.521Z,9.10
2023-02-17T11:00:28.743Z,9.18
2023-02-17T11:02:58.665Z,9.17
2023-02-17T11:05:31.038Z,9.14
2023-02-17T11:08:06.077Z,9.21
2023-02-17T11:10:37.014Z,9.09
2023-02-17T11:13:29.765Z,9.30
2023-02-17T11:15:58.691Z,9.30
2023-02-17T11:18:33.088Z,9.28
2023-02-17T11:21:05.083Z,9.22
2023-02-17T11:23:33.917Z,9.18
2023-02-17T11:26:11.190Z,9.19
2023-02-17T11:28:39.787Z,9.17
2023-02-17T11:31:09.361Z,9.00
2023-02-17T11:33:41.174Z,9.05
2023-02-17T11:36:24.298Z,8.92
2023-02-17T11:38:52.886Z,8.87
2023-02-17T11:41:21.443Z,8.92
2023-02-17T11:43:55.876Z,8.79
2023-02-17T11:46:32.658Z,8.76
2023-02-17T11:49:34.825Z,8.82
2023-02-17T11:52:22.498Z,8.76
2023-02-17T11:55:07.809Z,8.77
2023-02-17T11:57:42.806Z,8.68
2023-02-17T12:00:18.853Z,8.76
2023-02-17T12:03:22.275Z,8.69
2023-02-17T12:06:03.829Z,8.53
2023-02-17T12:08:47.653Z,8.59
2023-02-17T12:11:24.557Z,8.66
2023-02-17T12:14:21.006Z,8.34
2023-02-17T12:16:57.024Z,8.52
2023-02-17T12:19:41.693Z,8.73
2023-02-17T12:22:20.751Z,8.76
2023-02-17T12:25:15.557Z,8.74
2023-02-17T12:28:00.082Z,8.70
2023-02-17T12:30:40.468Z,8.70
2023-02-17T12:33:42.029Z,8.90
2023-02-17T12:36:14.438Z,8.87
2023-02-17T12:38:47.762Z,8.91
2023-02-17T12:41:21.139Z,8.92
2023-02-17T12:43:54.253Z,8.79
2023-02-17T12:46:28.579Z,8.92
2023-02-17T12:49:01.007Z,8.80
2023-02-17T12:51:33.406Z,8.91
2023-02-17T12:54:13.900Z,8.90
2023-02-17T12:56:55.356Z,9.06
2023-02-17T12:59:33.882Z,9.00
2023-02-17T13:02:28.048Z,9.11
2023-02-17T13:05:02.255Z,9.19
2023-02-17T13:07:44.650Z,9.12
2023-02-17T13:10:33.844Z,9.12
2023-02-17T13:13:10.638Z,9.19
2023-02-17T13:15:42.956Z,9.19
2023-02-17T13:18:26.593Z,9.32
2023-02-17T13:21:01.011Z,9.32
2023-02-17T13:23:40.032Z,9.40
2023-02-17T13:26:26.351Z,9.41
2023-02-17T13:29:09.297Z,9.50
2023-02-17T13:31:49.337Z,9.48
2023-02-17T13:34:31.386Z,9.43
2023-02-17T13:37:02.328Z,9.48
2023-02-17T13:39:38.289Z,9.51
2023-02-17T13:42:36.976Z,9.60
2023-02-17T13:45:22.462Z,8.52
2023-02-17T13:47:54.148Z,9.62
2023-02-17T13:50:35.106Z,9.73
2023-02-17T13:53:07.670Z,9.80
2023-02-17T13:55:36.451Z,9.78
2023-02-17T13:58:05.969Z,9.83
2023-02-17T14:00:34.350Z,9.91
2023-02-17T14:03:15.276Z,9.94
2023-02-17T14:05:46.404Z,9.97
2023-02-17T14:08:20.023Z,9.95
2023-02-17T14:10:48.718Z,9.94
2023-02-17T14:13:18.423Z,9.92
2023-02-17T14:15:56.166Z,9.91
2023-02-17T14:18:35.499Z,9.87
2023-02-17T14:21:10.271Z,9.90
2023-02-17T14:23:45.525Z,9.92
2023-02-17T14:26:25.452Z,9.94
2023-02-17T14:28:56.641Z,9.97
2023-02-17T14:31:25.487Z,10.02
2023-02-17T14:33:55.783Z,10.01
2023-02-17T14:36:36.091Z,9.83
2023-02-17T14:39:06.735Z,9.96
2023-02-17T14:41:35.364Z,10.05
2023-02-17T14:44:06.073Z,9.96
2023-02-17T14:46:34.930Z,9.90
2023-02-17T14:49:03.497Z,10.00
2023-02-17T14:51:35.717Z,9.95
2023-02-17T14:54:05.603Z,9.26
2023-02-17T14:56:38.834Z,9.97
2023-02-17T14:59:10.030Z,9.99
2023-02-17T15:01:38.284Z,9.57
2023-02-17T15:04:07.168Z,9.97
2023-02-17T15:06:40.742Z,9.95
2023-02-17T15:09:13.395Z,10.17
2023-02-17T15:11:45.531Z,10.20
2023-02-17T15:14:17.807Z,10.28
2023-02-17T15:16:46.713Z,10.82
2023-02-17T15:19:17.964Z,10.27
2023-02-17T15:21:49.674Z,10.21
2023-02-17T15:24:20.830Z,10.31
2023-02-17T15:26:49.048Z,10.28
2023-02-17T15:29:22.199Z,9.53
2023-02-17T15:31:52.859Z,10.34
2023-02-17T15:34:24.253Z,10.39
2023-02-17T15:36:52.636Z,10.38
2023-02-17T15:39:22.279Z,10.48
2023-02-17T15:41:51.456Z,10.52
2023-02-17T15:44:23.888Z,10.41
2023-02-17T15:46:55.942Z,10.39
2023-02-17T15:49:24.454Z,10.31
2023-02-17T15:51:53.132Z,10.46
2023-02-17T15:54:22.932Z,10.38
2023-02-17T15:56:53.759Z,10.50
2023-02-17T15:59:26.825Z,10.33
2023-02-17T16:01:56.749Z,10.36
2023-02-17T16:04:24.910Z,10.40
2023-02-17T16:06:53.099Z,10.40
2023-02-17T16:09:21.667Z,10.29
2023-02-17T16:11:52.281Z,10.36
2023-02-17T16:14:31.848Z,10.40
2023-02-17T16:17:00.224Z,10.49
2023-02-17T16:19:29.031Z,10.39
2023-02-17T16:21:57.356Z,10.33
2023-02-17T16:24:25.565Z,10.33
2023-02-17T16:26:53.853Z,10.50
2023-02-17T16:29:23.927Z,10.44
2023-02-17T16:31:52.449Z,10.34
2023-02-17T16:34:22.888Z,10.30
2023-02-17T16:36:53.506Z,10.39
2023-02-17T16:39:22.799Z,10.40
2023-02-17T16:41:51.672Z,10.39
2023-02-17T16:44:24.564Z,10.48
2023-02-17T16:46:55.604Z,10.37
2023-02-17T16:49:32.567Z,10.34
2023-02-17T16:52:01.111Z,10.47
2023-02-17T16:54:30.120Z,10.35
2023-02-17T16:56:59.422Z,10.42
2023-02-17T16:59:29.312Z,10.40
2023-02-17T17:01:59.339Z,10.48
2023-02-17T17:04:27.560Z,10.49
2023-02-17T17:07:22.754Z,10.41
2023-02-17T17:10:14.321Z,10.43
2023-02-17T17:12:39.074Z,10.33
2023-02-17T17:15:10.134Z,10.37
2023-02-17T17:17:43.780Z,10.40
2023-02-17T17:20:17.204Z,10.37
2023-02-17T17:22:46.711Z,10.36
2023-02-17T17:25:15.378Z,10.33
2023-02-17T17:27:45.944Z,10.39
2023-02-17T17:30:23.252Z,10.27
2023-02-17T17:32:51.801Z,10.36
2023-02-17T17:35:20.942Z,10.40
2023-02-17T17:37:49.477Z,10.22
2023-02-17T17:40:21.056Z,10.20
2023-02-17T17:42:49.466Z,10.28
2023-02-17T17:45:19.912Z,10.17
2023-02-17T17:47:48.181Z,10.31
2023-02-17T17:50:19.553Z,10.37
2023-02-17T17:52:48.836Z,10.25
2023-02-17T17:55:17.590Z,9.55
2023-02-17T17:57:45.837Z,10.20
2023-02-17T18:00:19.779Z,10.36
2023-02-17T18:02:48.008Z,10.24
2023-02-17T18:05:16.597Z,10.29
2023-02-17T18:07:48.150Z,10.36
2023-02-17T18:10:16.653Z,10.33
2023-02-17T18:12:46.705Z,10.19
2023-02-17T18:15:15.837Z,10.31
2023-02-17T18:17:46.465Z,10.24
2023-02-17T18:20:15.084Z,10.39
2023-02-17T18:22:43.201Z,10.45
2023-02-17T18:25:12.137Z,9.86
2023-02-17T18:27:42.696Z,10.29
2023-02-17T18:30:12.623Z,10.18
2023-02-17T18:32:41.251Z,10.28
2023-02-17T18:35:11.244Z,10.17
2023-02-17T18:37:40.987Z,10.23
2023-02-17T18:40:12.529Z,10.28
2023-02-17T18:42:42.401Z,9.73
2023-02-17T18:45:11.828Z,10.09
2023-02-17T18:47:40.005Z,9.88
2023-02-17T18:50:11.996Z,9.76
2023-02-17T18:52:40.622Z,9.52
2023-02-17T18:55:09.638Z,9.46
2023-02-17T18:57:38.178Z,9.29
2023-02-17T19:00:10.722Z,9.42
2023-02-17T19:02:39.976Z,9.36
2023-02-17T19:05:15.111Z,9.27
2023-02-17T19:07:43.546Z,9.25
2023-02-17T19:10:12.866Z,9.23
2023-02-17T19:12:41.142Z,9.32
2023-02-17T19:15:09.697Z,9.31
2023-02-17T19:17:37.904Z,9.36
2023-02-17T19:20:07.491Z,9.32
2023-02-17T19:22:38.202Z,9.33
2023-02-17T19:25:08.229Z,9.30
2023-02-17T19:27:39.747Z,8.20
2023-02-17T19:30:09.628Z,8.75
2023-02-17T19:32:37.971Z,9.42
2023-02-17T19:35:06.919Z,9.30
2023-02-17T19:37:37.375Z,9.37
2023-02-17T19:40:07.144Z,9.28
2023-02-17T19:42:35.649Z,9.33
2023-02-17T19:45:03.932Z,9.33
2023-02-17T19:47:32.117Z,9.35
2023-02-17T19:50:00.332Z,9.47
2023-02-17T19:52:28.993Z,9.37
2023-02-17T19:54:59.677Z,9.29
2023-02-17T19:57:27.845Z,9.49
2023-02-17T19:59:56.574Z,9.43
2023-02-17T20:02:24.810Z,9.41
2023-02-17T20:04:53.012Z,9.45
2023-02-17T20:07:21.251Z,9.49
2023-02-17T20:09:49.424Z,9.43
2023-02-17T20:12:19.060Z,9.52
2023-02-17T20:14:47.265Z,9.36
2023-02-17T20:17:16.810Z,9.42
2023-02-17T20:19:45.062Z,9.60
2023-02-17T20:22:13.348Z,9.54
2023-02-17T20:24:42.605Z,9.48
2023-02-17T20:27:11.505Z,9.55
2023-02-17T20:29:41.158Z,9.58
2023-02-17T20:32:10.071Z,9.43
2023-02-17T20:34:40.484Z,9.45
2023-02-17T20:37:09.625Z,9.63
2023-02-17T20:39:40.157Z,9.61
2023-02-17T20:42:08.519Z,9.61
2023-02-17T20:44:37.039Z,9.57
2023-02-17T20:47:06.653Z,9.58
2023-02-17T20:49:36.253Z,9.44
2023-02-17T20:52:06.545Z,9.40
2023-02-17T20:54:35.284Z,9.40
2023-02-17T20:57:04.863Z,9.41
2023-02-17T20:59:33.014Z,9.41
2023-02-17T21:02:01.301Z,9.33
2023-02-17T21:04:32.895Z,9.30
2023-02-17T21:07:02.861Z,9.35
2023-02-17T21:09:31.170Z,9.35
2023-02-17T21:11:59.435Z,9.30
2023-02-17T21:14:27.650Z,9.26
2023-02-17T21:16:55.820Z,9.16
2023-02-17T21:19:24.234Z,9.29
2023-02-17T21:21:53.747Z,9.27
2023-02-17T21:24:22.223Z,9.31
2023-02-17T21:26:50.415Z,9.27
2023-02-17T21:29:18.646Z,9.28
2023-02-17T21:31:46.891Z,9.20
2023-02-17T21:34:15.177Z,9.23
2023-02-17T21:36:43.358Z,9.27
2023-02-17T21:39:13.121Z,9.21
2023-02-17T21:41:43.026Z,9.07
2023-02-17T21:44:31.280Z,8.98
2023-02-17T21:46:59.742Z,9.22
2023-02-17T21:49:28.533Z,9.20
2023-02-17T21:51:56.743Z,9.16
2023-02-17T21:54:26.274Z,9.29
2023-02-17T21:56:54.474Z,9.28
2023-02-17T21:59:22.656Z,9.27
2023-02-17T22:01:51.930Z,9.30
2023-02-17T22:04:20.278Z,9.25
2023-02-17T22:06:48.563Z,9.17
2023-02-17T22:09:18.459Z,9.25
2023-02-17T22:11:49.562Z,9.30
2023-02-17T22:14:21.266Z,9.40
2023-02-17T22:16:50.441Z,9.38
2023-02-17T22:19:21.701Z,9.41
2023-02-17T22:21:54.389Z,9.42
2023-02-17T22:24:22.777Z,9.34
2023-02-17T22:26:52.320Z,9.31
2023-02-17T22:29:20.517Z,9.30
2023-02-17T22:31:50.307Z,9.36
2023-02-17T22:34:18.692Z,9.40
2023-02-17T22:36:47.304Z,9.27
2023-02-17T22:39:15.623Z,9.33
2023-02-17T22:41:43.878Z,9.22
2023-02-17T22:44:13.564Z,9.25
2023-02-17T22:46:41.872Z,9.27
2023-02-17T22:49:10.137Z,9.21
2023-02-17T22:51:40.668Z,9.30
2023-02-17T22:54:09.965Z,9.28
2023-02-17T22:56:38.506Z,9.26
2023-02-17T22:59:06.805Z,9.30
2023-02-17T23:01:37.706Z,9.32
2023-02-17T23:04:08.087Z,9.37
2023-02-17T23:06:38.800Z,9.14
2023-02-17T23:09:10.146Z,9.29
2023-02-17T23:11:54.238Z,9.33
2023-02-17T23:14:26.580Z,9.31
2023-02-17T23:16:59.282Z,9.44
2023-02-17T23:19:28.654Z,9.40
2023-02-17T23:21:59.785Z,9.07
2023-02-17T23:24:29.139Z,9.29
2023-02-17T23:27:00.268Z,9.30
2023-02-17T23:29:30.666Z,9.25
2023-02-17T23:32:00.609Z,9.22
2023-02-17T23:34:29.724Z,9.17
2023-02-17T23:36:58.096Z,9.09
2023-02-17T23:39:26.415Z,9.10
2023-02-17T23:41:54.704Z,9.12
2023-02-17T23:44:22.872Z,9.17
2023-02-17T23:46:51.132Z,9.11
2023-02-17T23:49:20.656Z,9.06
2023-02-17T23:51:48.852Z,9.10
2023-02-17T23:54:17.197Z,9.14
2023-02-17T23:56:45.410Z,8.93
2023-02-17T23:59:14.219Z,8.90
